Aida — SBLI — position and weather

sailwx.info

Track history (hours):
 
Tides and Currents Weather Stations Pressure Air Temp Water Temp Dewpoint Dewpoint Depression Visibility Wind Speed Wind Dir Waves Ship Positions

Aida

Last reported at 2014-Jul-31 21:33 UTC. Time now 2014-Jul-31 21:45 UTC.
Position N 40°42' W 074°09'.

Length 199.1 m; beam 32.3 m; draft 9.5 m.

Type: Cargo ship. MMSI: 266211000.

Date/timePositionNaut miles runAvg speedWind from/ knotsBaromVisibWave heightAir tempDewpointWater temp
2014-Jul-31 21:33N 40°42' W 074°09'0 0.0
2014-Jul-31 20:33N 40°42' W 074°09'0 0.0
2014-Jul-31 19:33N 40°42' W 074°09'0 0.0
2014-Jul-31 18:33N 40°42' W 074°09'0 0.0
2014-Jul-31 17:33N 40°42' W 074°09'0 0.0
2014-Jul-31 16:33N 40°42' W 074°09'0 0.0
2014-Jul-31 15:33N 40°42' W 074°09'0 0.0
2014-Jul-31 14:33N 40°42' W 074°09'0 0.0
2014-Jul-31 13:33N 40°42' W 074°09'0 0.0
2014-Jul-31 12:33N 40°42' W 074°09'0 0.0
2014-Jul-31 11:33N 40°42' W 074°09'0 0.0
2014-Jul-31 10:33N 40°42' W 074°09'4 3.6
2014-Jul-31 09:33N 40°39' W 074°06'2 1.5
2014-Jul-31 08:31N 40°40' W 074°04'0 0.0
2014-Jul-31 07:31N 40°40' W 074°04'0 0.0
2014-Jul-31 06:31N 40°40' W 074°04'0 0.0
2014-Jul-31 05:31N 40°40' W 074°04'0 0.0
2014-Jul-31 04:31N 40°40' W 074°04'0 0.0
2014-Jul-31 03:31N 40°40' W 074°04'0 0.0
2014-Jul-31 02:31N 40°40' W 074°04'0 0.0
2014-Jul-31 01:31N 40°40' W 074°04'0 0.0
2014-Jul-31 00:31N 40°40' W 074°04'0 0.0
2014-Jul-30 23:31N 40°40' W 074°04'0 0.0
2014-Jul-30 22:31N 40°40' W 074°04'0 0.0
2014-Jul-30 21:31N 40°40' W 074°04'0 0.0
2014-Jul-30 20:28N 40°40' W 074°04'0 0.0
2014-Jul-30 19:31N 40°40' W 074°04'0 0.0
2014-Jul-30 18:31N 40°40' W 074°04'0 0.0
2014-Jul-30 17:31N 40°40' W 074°04'0 0.0
2014-Jul-30 16:31N 40°40' W 074°04'0 0.0
2014-Jul-30 15:31N 40°40' W 074°04'0 0.0
2014-Jul-30 14:31N 40°40' W 074°04'0 0.0
2014-Jul-30 13:31N 40°40' W 074°04'0 0.0
2014-Jul-30 12:31N 40°40' W 074°04'0 0.0
2014-Jul-30 11:31N 40°40' W 074°04'2 1.9
2014-Jul-30 10:33N 40°38' W 074°03'1010.4
2014-Jul-30 09:34N 40°30' W 073°56'1211.9
2014-Jul-30 08:33N 40°27' W 073°40'1616.1
2014-Jul-30 07:34N 40°28' W 073°19'1616.2
2014-Jul-30 06:33N 40°30' W 072°58'1616.3
2014-Jul-30 05:34N 40°30' W 072°37'1615.7
2014-Jul-30 04:34N 40°31' W 072°16'1615.5
2014-Jul-30 03:33N 40°31' W 071°56'1515.3
2014-Jul-30 02:33N 40°31' W 071°35'1515.4
2014-Jul-30 01:33N 40°32' W 071°15'1615.6
2014-Jul-30 00:33N 40°32' W 070°55'1515.4
2014-Jul-29 23:34N 40°32' W 070°34'1615.6
2014-Jul-29 22:30N 40°33' W 070°13'1515.4
2014-Jul-29 21:33N 40°33' W 069°54'1615.7
2014-Jul-29 20:33N 40°34' W 069°33'3115.1
2014-Jul-29 18:29N 40°41' W 068°52'32715.6
2014-Jul-28 21:33N 44°23' W 063°28'1312.5
2014-Jul-28 20:33N 44°35' W 063°32'2 2.2
2014-Jul-28 19:33N 44°37' W 063°31'112 5.7
2014-Jul-28 00:00N 43°54' W 061°06'7 1.2 130 / 141016.310.8 0.520.1 19.5
2014-Jul-27 18:00N 43°48' W 061°00'45 7.5 140 / 101016.610.8 1.021.1 19.7
2014-Jul-27 12:00N 43°36' W 060°00'8914.8 180 / 101018.3 5.4 0.519.8 18.7
2014-Jul-27 06:00N 43°18' W 058°00'17114.2 250 / 81018.910.8 21.3 22.1
2014-Jul-26 18:00N 42°42' W 054°12'15012.5 340 / 231014.510.8 1.520.6 21.5
2014-Jul-26 06:00N 42°48' W 050°48'25314.1 200 / 311014.8 5.4 20.1 17.9
2014-Jul-25 12:00N 43°30' W 045°06'17714.7 270 / 101022.010.8 1.021.5 20.7
2014-Jul-25 00:00N 44°06' W 041°06'7512.5 300 / 191019.910.8 18.8 19.7
2014-Jul-24 18:00N 44°24' W 039°24'7913.2 320 / 251015.810.8 2.019.3 20.9
2014-Jul-24 12:00N 44°42' W 037°36'33413.9 340 / 331011.0 5.4 3.517.1 17.1
2014-Jul-23 12:00N 46°00' W 029°54'20617.2 180 / 171019.810.8 1.517.8 18.0
2014-Jul-23 00:00N 46°36' W 025°00'48 7.9 270 / 141020.310.8 15.4 16.3
2014-Jul-22 18:00N 47°00' W 024°00'24113.4 270 / 161018.110.8 1.016.2 16.4
2014-Jul-22 00:00N 47°54' W 018°12'   210 / 141018.510.8 17.2 17.4
Track history (hours):
 
Tides and Currents Weather Stations Pressure Air Temp Water Temp Dewpoint Dewpoint Depression Visibility Wind Speed Wind Dir Waves Ship Positions

Aida

Last reported at 2014-Jul-31 21:33 UTC. Time now 2014-Jul-31 21:45 UTC.
Position N 40°42' W 074°09'.

Length 199.1 m; beam 32.3 m; draft 9.5 m.

Type: Cargo ship. MMSI: 266211000.

Date/timePositionNaut miles runAvg speedWind from/ knotsBaromVisibWave heightAir tempDewpointWater temp
2014-Jul-31 21:33N 40°42' W 074°09'0 0.0
2014-Jul-31 20:33N 40°42' W 074°09'0 0.0
2014-Jul-31 19:33N 40°42' W 074°09'0 0.0
2014-Jul-31 18:33N 40°42' W 074°09'0 0.0
2014-Jul-31 17:33N 40°42' W 074°09'0 0.0
2014-Jul-31 16:33N 40°42' W 074°09'0 0.0
2014-Jul-31 15:33N 40°42' W 074°09'0 0.0
2014-Jul-31 14:33N 40°42' W 074°09'0 0.0
2014-Jul-31 13:33N 40°42' W 074°09'0 0.0
2014-Jul-31 12:33N 40°42' W 074°09'0 0.0
2014-Jul-31 11:33N 40°42' W 074°09'0 0.0
2014-Jul-31 10:33N 40°42' W 074°09'4 3.6
2014-Jul-31 09:33N 40°39' W 074°06'2 1.5
2014-Jul-31 08:31N 40°40' W 074°04'0 0.0
2014-Jul-31 07:31N 40°40' W 074°04'0 0.0
2014-Jul-31 06:31N 40°40' W 074°04'0 0.0
2014-Jul-31 05:31N 40°40' W 074°04'0 0.0
2014-Jul-31 04:31N 40°40' W 074°04'0 0.0
2014-Jul-31 03:31N 40°40' W 074°04'0 0.0
2014-Jul-31 02:31N 40°40' W 074°04'0 0.0
2014-Jul-31 01:31N 40°40' W 074°04'0 0.0
2014-Jul-31 00:31N 40°40' W 074°04'0 0.0
2014-Jul-30 23:31N 40°40' W 074°04'0 0.0
2014-Jul-30 22:31N 40°40' W 074°04'0 0.0
2014-Jul-30 21:31N 40°40' W 074°04'0 0.0
2014-Jul-30 20:28N 40°40' W 074°04'0 0.0
2014-Jul-30 19:31N 40°40' W 074°04'0 0.0
2014-Jul-30 18:31N 40°40' W 074°04'0 0.0
2014-Jul-30 17:31N 40°40' W 074°04'0 0.0
2014-Jul-30 16:31N 40°40' W 074°04'0 0.0
2014-Jul-30 15:31N 40°40' W 074°04'0 0.0
2014-Jul-30 14:31N 40°40' W 074°04'0 0.0
2014-Jul-30 13:31N 40°40' W 074°04'0 0.0
2014-Jul-30 12:31N 40°40' W 074°04'0 0.0
2014-Jul-30 11:31N 40°40' W 074°04'2 1.9
2014-Jul-30 10:33N 40°38' W 074°03'1010.4
2014-Jul-30 09:34N 40°30' W 073°56'1211.9
2014-Jul-30 08:33N 40°27' W 073°40'1616.1
2014-Jul-30 07:34N 40°28' W 073°19'1616.2
2014-Jul-30 06:33N 40°30' W 072°58'1616.3
2014-Jul-30 05:34N 40°30' W 072°37'1615.7
2014-Jul-30 04:34N 40°31' W 072°16'1615.5
2014-Jul-30 03:33N 40°31' W 071°56'1515.3
2014-Jul-30 02:33N 40°31' W 071°35'1515.4
2014-Jul-30 01:33N 40°32' W 071°15'1615.6
2014-Jul-30 00:33N 40°32' W 070°55'1515.4
2014-Jul-29 23:34N 40°32' W 070°34'1615.6
2014-Jul-29 22:30N 40°33' W 070°13'1515.4
2014-Jul-29 21:33N 40°33' W 069°54'1615.7
2014-Jul-29 20:33N 40°34' W 069°33'3115.1
2014-Jul-29 18:29N 40°41' W 068°52'32715.6
2014-Jul-28 21:33N 44°23' W 063°28'1312.5
2014-Jul-28 20:33N 44°35' W 063°32'2 2.2
2014-Jul-28 19:33N 44°37' W 063°31'112 5.7
2014-Jul-28 00:00N 43°54' W 061°06'7 1.2 130 / 141016.310.8 0.520.1 19.5
2014-Jul-27 18:00N 43°48' W 061°00'45 7.5 140 / 101016.610.8 1.021.1 19.7
2014-Jul-27 12:00N 43°36' W 060°00'8914.8 180 / 101018.3 5.4 0.519.8 18.7
2014-Jul-27 06:00N 43°18' W 058°00'17114.2 250 / 81018.910.8 21.3 22.1
2014-Jul-26 18:00N 42°42' W 054°12'15012.5 340 / 231014.510.8 1.520.6 21.5
2014-Jul-26 06:00N 42°48' W 050°48'25314.1 200 / 311014.8 5.4 20.1 17.9
2014-Jul-25 12:00N 43°30' W 045°06'17714.7 270 / 101022.010.8 1.021.5 20.7
2014-Jul-25 00:00N 44°06' W 041°06'7512.5 300 / 191019.910.8 18.8 19.7
2014-Jul-24 18:00N 44°24' W 039°24'7913.2 320 / 251015.810.8 2.019.3 20.9
2014-Jul-24 12:00N 44°42' W 037°36'33413.9 340 / 331011.0 5.4 3.517.1 17.1
2014-Jul-23 12:00N 46°00' W 029°54'20617.2 180 / 171019.810.8 1.517.8 18.0
2014-Jul-23 00:00N 46°36' W 025°00'48 7.9 270 / 141020.310.8 15.4 16.3
2014-Jul-22 18:00N 47°00' W 024°00'24113.4 270 / 161018.110.8 1.016.2 16.4
2014-Jul-22 00:00N 47°54' W 018°12'   210 / 141018.510.8 17.2 17.4

Dump ship's entire track history